AirNav   Pilot Hours Calculator
 
 1229 users online  

CL35 Warner Springs Gliderport
Warner Springs, California, USA

GOING TO WARNER SPRINGS?


FAA INFORMATION EFFECTIVE 31 DECEMBER 2020

Location

FAA Identifier: CL35
Lat/Long: 33-17-04.2100N 116-40-10.7650W
33-17.070167N 116-40.179417W
33.2845028,-116.6696569
(estimated)
Elevation: 2880 ft. / 878 m (estimated)
Variation: 13E (1985)
From city: 2 miles E of WARNER SPRINGS, CA
Time zone: UTC -8 (UTC -7 during Daylight Saving Time)
Zip code: 92086

Gliderport Operations

Gliderport use: Private use. Permission required prior to landing
Activation date: 10/1984
Control tower: no
ARTCC: LOS ANGELES CENTER
FSS: SAN DIEGO FLIGHT SERVICE STATION
Attendance: 0900-1700
Wind indicator: yes
Segmented circle: yes
Landing fee: yes

Gliderport Communications

UNICOM: 122.8
WX AWOS-3P at L08 (18 nm E): 126.575 (760-767-3308)
WX ASOS at RNM (19 nm SW): PHONE 760-789-7699

Nearby radio navigation aids

VOR radial/distance  VOR name  Freq  Var
JLIr319/9.6JULIAN VORTAC114.0015E
TRMr218/32.8THERMAL VORTAC116.2013E
PSPr186/37.1PALM SPRINGS VORTAC115.5013E
OCNr071/37.6OCEANSIDE VORTAC115.3015E
HDFr125/(39.2)HOMELAND VOR113.4014E

Gliderport Services

Runway Information

Runway 8/26

Dimensions: 3500 x 70 ft. / 1067 x 21 m
Surface: asphalt
RUNWAY 8  RUNWAY 26
Latitude: 33-17.060333N33-17.080000N
Longitude: 116-40.522667W116-39.836167W
Elevation: 2873.0 ft.2914.0 ft.
Traffic pattern: leftleft
Obstructions: none200 ft. hill, 5200 ft. from runway

Gliderport Ownership and Management from official FAA records

Ownership: Privately-owned
Owner: WARNER SPRINGS RANCH RESORT, LLC
31930 HWY 79
WARNER SPRINGS, CA 92086
Phone 760-782-4200
SKY SAILING 31930 HWY 79.
Manager: BRET WILLAT
SKY SAILING 31930 HWY 79
WARNER SPRINGS, CA 92086
Phone 760-782-0404
LEASEE.

Gliderport Operational Statistics

Aircraft based on the field: 80
Single engine airplanes: 10
Gliders airplanes: 70
    

Additional Remarks

FOR CD CTC LOS ANGELES ARTCC AT 661-575-2079.

Instrument Procedures

There are no published instrument procedures at CL35.

Some nearby airports with instrument procedures:

L08 - Borrego Valley Airport (18 nm E)
KRNM - Ramona Airport (19 nm SW)
F70 - French Valley Airport (29 nm NW)
L18 - Fallbrook Community Airpark (29 nm W)
KSEE - Gillespie Field Airport (31 nm SW)
 
Loc | Ops | Rwys | IFR | FBO | Links
Com | Nav | Svcs | Stats | Notes
Area around CL35 (Warner Springs Gliderport)
 
Road maps at: MapQuest Bing Google
 
Aerial photo
WARNING: Photo may not be current or correct
Aerial photo of CL35 (Warner Springs Gliderport)
Photo by Steve Lupinacci
Photo taken 27-May-2008

Do you have a better or more recent aerial photo of Warner Springs Gliderport that you would like to share? If so, please send us your photo.

 
Sectional chart

 
Airport distance calculator
Flying to Warner Springs Gliderport? Find the distance to fly.

From to CL35

Sunrise and sunset
Times for 16-Jan-2021
 Local
(UTC-8)
 Zulu
(UTC)
Morning civil twilight06:2414:24
Sunrise06:5114:51
Sunset17:0201:02
Evening civil twilight17:2901:29

Current date and time
Zulu (UTC)  16-Jan-2021 19:09:58
Local (UTC-8)  16-Jan-2021 11:09:58
 
METAR
KL08 
18nm E 
161855Z AUTO 04004KT 10SM CLR 26/M13 A3005 RMK AO2
KRNM 
20nm SW 
161853Z 00000KT 10SM CLR 28/M07 A3001 RMK AO2 SLP153 T02831072
KF70 
29nm NW 
161855Z AUTO 34008KT 10SM CLR 25/M08 A3003 RMK AO1
KL18 
29nm W 
161855Z AUTO 00000KT 10SM CLR 25/M01 A3001 RMK AO2
KSEE 
32nm SW 
161847Z 00000KT 10SM SKC 22/M05 A3000
KCRQ 
32nm W 
161853Z VRB03KT 10SM CLR 25/M09 A2998 RMK AO2 SLP150 T02501089
KHMT 
32nm NW 
161415Z AUTO 00000KT 10SM CLR 06/M02 A3004 RMK AO2 T00591018
KTRM 
33nm NE 
161852Z AUTO 35004KT 10SM CLR 27/M03 A3003 RMK AO2 SLP170 T02671033
KPSP 
33nm N 
161853Z 00000KT 10SM CLR 27/M07 A3007 RMK AO2 SLP180 T02721067
KNFG 
33nm W 
161855Z AUTO 00000KT 10SM CLR 27/M11 A2998 RMK AO2 SLP150 T02671111
TAF
KCRQ 
32nm W 
161734Z 1618/1718 VRB03KT P6SM FEW250 FM162030 25007KT P6SM FEW250 FM170100 VRB03KT P6SM SCT250
KTRM 
33nm NE 
161120Z 1612/1712 33005KT P6SM SKC FM162000 03009KT P6SM SKC FM170300 32004KT P6SM SKC
KPSP 
33nm N 
161120Z 1612/1712 32005KT P6SM FEW250 FM161800 10005KT P6SM SKC FM170200 32005KT P6SM SKC
KNFG 
33nm W 
1615/1715 VRB05KT 9999 SKC QNH2995INS FM161930 18008KT 9999 FEW250 QNH2991INS BECMG 1701/1703 VRB05KT 9999 SKC QNH2996INS LAST TAF NO AMD AFTR 1615 T06/1615Z T27/1621Z
KNKX 
34nm SW 
1615/1715 08005KT 99999 SKC QNH2995INS BECMG 1618/1620 24008KT 9999 FEW250 QNH2991INS BECMG 1702/1704 09005KT 99999 SKC QNH2996INS LAST TAF NO AMD AFTR 1615 T13/1615Z T28/1621Z
NOTAMs
Click for the latest NOTAMs
NOTAMs are issued by the DoD/FAA and will open in a separate window not controlled by AirNav.

 

 
 

Would you like to see your business listed on this page?

 If your business provides an interesting product or service to pilots, flight crews, aircraft, or users of the Warner Springs Gliderport, you should consider listing it here.  To start the listing process, click on the button below
 
Add a business
 

Other Pages about Warner Springs Gliderport

www.agcsc.org/warner_springs_info.html
 
Update a link
 
Copyright © AirNav, LLC. All rights reserved. Privacy Policy  Contact